Terminal Aerodrome Forecast
Issued by NWS

Home | Current Version | Previous Version | Text Only | Print | Product List | Glossary On
Versions: 1 2 3 4 5 6 7 8 9 10 11 12 13 14 15 16
000
FTUS45 KPIH 310500
TAFSUN
TAF
KSUN 310520Z 3106/0106 31008KT P6SM SCT080 BKN120
     FM311200 31006KT P6SM BKN090
     FM311800 14006KT P6SM VCTS SCT070CB
     FM010300 32006KT P6SM SCT080 BKN130 BKN200
      AMD LTD TO CLD VIS AND WIND TIL 311300=

USA.gov is the U.S. government's official web portal to all federal, state and local government web resources and services.